This is the latest recevied weather packets stored in our database for station/object SV9TNF-2. If no packets are shown the sender has not sent any weather packets the latest 10 day(s).
| Time | Temp. | Humidity | Pressure | Rain* | Wind** | Luminosity | Snow |
|---|---|---|---|---|---|---|---|
| 1777551293 | 23.89° C | 52% | 1021 hPa | 0 mm | 3.13 m/s, 115° | - | - |
| 1777550993 | 25° C | 49% | 1021 hPa | 0 mm | 2.68 m/s, 187° | - | - |
| 1777550693 | 23.89° C | 47% | 1021 hPa | 0 mm | 2.68 m/s, 88° | - | - |
| 1777550392 | 23.33° C | 51% | 1021 hPa | 0 mm | 4.02 m/s, 83° | - | - |
| 1777550092 | 23.89° C | 52% | 1021 hPa | 0 mm | 2.68 m/s, 219° | - | - |
| 1777549792 | 22.78° C | 52% | 1021 hPa | 0 mm | 2.68 m/s, 88° | - | - |
| 1777549492 | 22.78° C | 51% | 1021.7 hPa | 0 mm | 3.13 m/s, 46° | - | - |
| 1777549192 | 22.22° C | 51% | 1021.7 hPa | 0 mm | 3.13 m/s, 91° | - | - |
| 1777548892 | 23.33° C | 52% | 1021.7 hPa | 0 mm | 3.58 m/s, 81° | - | - |
| 1777548592 | 22.78° C | 50% | 1021.7 hPa | 0 mm | 3.13 m/s, 61° | - | - |
| 1777548291 | 23.33° C | 51% | 1021.7 hPa | 0 mm | 3.13 m/s, 81° | - | - |
| 1777547991 | 23.33° C | 48% | 1021.7 hPa | 0 mm | 4.02 m/s, 83° | - | - |
| 1777547691 | 23.33° C | 48% | 1021.7 hPa | 0 mm | 2.68 m/s, 83° | - | - |
| 1777547391 | 23.33° C | 48% | 1021.7 hPa | 0 mm | 2.24 m/s, 99° | - | - |
| 1777547092 | 23.33° C | 50% | 1021.7 hPa | 0 mm | 3.13 m/s, 78° | - | - |
| 1777546792 | 22.78° C | 49% | 1021.7 hPa | 0 mm | 4.92 m/s, 58° | - | - |
| 1777546491 | 23.33° C | 48% | 1021.7 hPa | 0 mm | 4.47 m/s, 73° | - | - |
| 1777546191 | 23.33° C | 49% | 1021.7 hPa | 0 mm | 4.02 m/s, 120° | - | - |
| 1777545891 | 22.78° C | 47% | 1021 hPa | 0 mm | 4.02 m/s, 85° | - | - |
| 1777545591 | 22.78° C | 47% | 1021 hPa | 0 mm | 3.58 m/s, 72° | - | - |
| 1777545291 | 23.33° C | 44% | 1021.7 hPa | 0 mm | 2.68 m/s, 66° | - | - |
| 1777544990 | 23.33° C | 42% | 1021.7 hPa | 0 mm | 2.24 m/s, 79° | - | - |
| 1777544690 | 23.33° C | 41% | 1021.7 hPa | 0 mm | 4.02 m/s, 78° | - | - |
| 1777544390 | 23.33° C | 39% | 1021.7 hPa | 0 mm | 2.24 m/s, 90° | - | - |
| 1777544090 | 23.33° C | 42% | 1021.7 hPa | 0 mm | 4.47 m/s, 83° | - | - |
* Rain latest hour (hover to see other rain measurements)
** Current wind speed in m/s (hover to see current wind gust speed)